Brantwood, Wisconsin
Current Conditions -  °F | °C
As of 1:55 AM on Thursday 23 Oct 2014 (Local Time) from KPBH Reporting Station
Overcast Overcast  
Wind Chill: 45°   Ceiling: 3500
Heat Index: 48°   Visibility: 10mi
Dew Point: 36°   Wind: 8mph
Humidity: 63%   Direction: 170°S
Pressure: 30.09"   Gusts: NA
Location:  45.56°N, 90.12°W
Report Text: KPBH 230655Z AUTO 17007KT 10SM OVC035 09/02 A3009 RMK AO2 T00900022
Loading
Personal Weather Stations






























Interactive Weather Map New forecast layout! Learn more

10-Day Weather Forecast

Advertisements
Track Severe Weather on mobile